Port Arthur, TX (77640)

12:53 PM CDT on July 23, 2016 (GMT -0500)
Southeast Texas Regional | | Change Station

Elev 13 ft 29.95 °N, 94.02 °W | Updated 1 hour ago

Scattered Clouds
Scattered Clouds
90 °F
Feels Like 102 °F
N
6
Wind Variable Wind from SW

Today
High -- | Low -- °F
--% Chance of Precip.
Yesterday
High -- | Low -- °F
Precip. -- in
Pressure 29.99 in
Visibility 10.0 miles
Clouds Few 3100 ft
Scattered Clouds 4200 ft
Heat Index 102 °F
Dew Point 77 °F
Humidity 65%
Rainfall 0.01 in
Snow Depth Not available.
6:30 AM 8:14 PM
Waning Gibbous, 83% visible
METAR KBPT 231653Z 23005KT 10SM FEW031 SCT042 32/25 A2999 RMK AO2 LTG DSNT E AND SE SLP154 T03220250
Pressure 29.99 in
Visibility 10.0 miles
Clouds Few 3100 ft
Scattered Clouds 4200 ft
Heat Index 102 °F
Dew Point 77 °F
Humidity 65%
Rainfall 0.01 in
Snow Depth Not available.
6:30 AM 8:14 PM
Waning Gibbous, 83% visible
METAR KBPT 231653Z 23005KT 10SM FEW031 SCT042 32/25 A2999 RMK AO2 LTG DSNT E AND SE SLP154 T03220250

10-Day Weather Forecast

Almanac

Astronomy

Jul. 23, 2016 Rise Set
Actual Time
Civil Twilight
Nautical Twilight
Astronomical Twilight
Moon
Length of Visible Light
Length of Day
Tomorrow will be .
, % of the Moon is Illuminated

Today's Extremes

State Highs State Lows

Community

WunderPhotos

Upload Photos

1,926,878 photos uploaded!

WunderBlog® & News

Nearby

Air Quality

  Air Quality AQ Index Pollutant
Not available.

Snow Depth

Station Depth Elevation

Earthquake Activity

City Distance Mag. Time & Date
Minimum magnitude displayed is 2.5.

Coastal Water Temperatures

Place Temperature

Stations

Nearby Weather Stations

Station Location Temp. Windchill Dew Point Humidity Wind Precip. Elev Updated Type
                   

Watches & Warnings

There are currently no watches in effect.